Time;durP1;ratioP1;P1;durP2;ratioP2;P2;SDS_P1;SDS_P2;PMS_P1;PMS_P2;Temp;Humidity;BMP_temperature;BMP_pressure;BME280_temperature;BME280_humidity;BME280_pressure;Samples;Min_cycle;Max_cycle;Signal;HPM_P1;HPM_P2
2023/02/25 00:00:30;;;;;;;4.63;4.20;;;7.80;99.90;;;;;;5034143;28;20212;-63
2023/02/25 00:02:58;;;;;;;5.40;4.10;;;7.70;99.90;;;;;;5034748;28;20631;-61
2023/02/25 00:05:25;;;;;;;7.83;4.00;;;7.70;99.90;;;;;;5035123;28;20232;-61
2023/02/25 00:07:53;;;;;;;5.93;4.73;;;7.50;99.90;;;;;;5033978;28;20234;-61
2023/02/25 00:10:19;;;;;;;5.80;4.43;;;7.50;99.90;;;;;;5033771;28;20585;-60
2023/02/25 00:12:46;;;;;;;6.40;4.67;;;7.50;99.90;;;;;;5033667;28;20210;-61
2023/02/25 00:15:14;;;;;;;6.77;4.20;;;7.60;99.90;;;;;;5033794;28;20693;-60
2023/02/25 00:17:42;;;;;;;6.93;4.30;;;7.70;99.90;;;;;;5034055;28;20612;-62
2023/02/25 00:20:12;;;;;;;6.30;4.00;;;7.70;99.90;;;;;;5032893;28;20232;-61
2023/02/25 00:22:39;;;;;;;7.67;4.20;;;7.70;99.90;;;;;;5035348;28;20209;-62
2023/02/25 00:25:07;;;;;;;8.77;4.40;;;7.70;99.90;;;;;;5036788;28;20210;-61
2023/02/25 00:27:35;;;;;;;6.70;3.93;;;7.60;99.90;;;;;;5035371;28;20760;-61
2023/02/25 00:30:02;;;;;;;6.53;4.07;;;7.50;99.90;;;;;;5034739;28;20222;-61
2023/02/25 00:32:30;;;;;;;6.10;4.20;;;7.50;99.90;;;;;;5035279;28;20211;-61
2023/02/25 00:34:57;;;;;;;7.70;4.23;;;7.50;99.90;;;;;;5035009;28;20652;-61
2023/02/25 00:37:23;;;;;;;6.33;4.07;;;7.60;99.90;;;;;;5035265;28;20229;-62
2023/02/25 00:39:50;;;;;;;6.33;3.80;;;7.70;99.90;;;;;;5033858;28;20238;-60
2023/02/25 00:42:18;;;;;;;4.83;3.53;;;7.80;99.90;;;;;;5032189;28;20264;-61
2023/02/25 00:44:45;;;;;;;8.07;4.40;;;7.90;99.90;;;;;;5032621;28;20210;-62
2023/02/25 00:47:14;;;;;;;5.27;3.60;;;7.80;99.90;;;;;;5032854;28;20675;-62
2023/02/25 00:49:42;;;;;;;4.80;3.57;;;7.80;99.90;;;;;;5033319;28;20245;-60
2023/02/25 00:52:09;;;;;;;4.50;3.27;;;7.70;99.90;;;;;;5033379;28;20267;-60
2023/02/25 00:54:38;;;;;;;5.47;3.60;;;7.60;99.90;;;;;;5032951;28;20217;-62
2023/02/25 00:57:05;;;;;;;5.90;3.87;;;7.50;99.90;;;;;;5032705;28;20249;-61
2023/02/25 00:59:31;;;;;;;5.03;3.60;;;7.40;99.90;;;;;;5032119;28;20280;-60
2023/02/25 01:01:58;;;;;;;5.93;3.57;;;7.50;99.90;;;;;;5032085;28;20218;-61
2023/02/25 01:04:25;;;;;;;5.77;3.67;;;7.50;99.90;;;;;;5031857;28;20264;-61
2023/02/25 01:06:54;;;;;;;7.27;4.13;;;7.50;99.90;;;;;;5032368;28;20222;-61
2023/02/25 01:09:21;;;;;;;3.93;3.13;;;7.50;99.90;;;;;;5032167;28;20276;-60
2023/02/25 01:11:49;;;;;;;4.10;3.37;;;7.30;99.90;;;;;;5032636;28;20210;-61
2023/02/25 01:14:18;;;;;;;6.03;3.43;;;7.30;99.90;;;;;;5032773;28;20207;-62
2023/02/25 01:16:46;;;;;;;5.97;3.77;;;7.20;99.90;;;;;;5032178;28;20662;-61
2023/02/25 01:19:15;;;;;;;6.33;3.70;;;7.20;99.90;;;;;;5032399;28;20222;-61
2023/02/25 01:21:45;;;;;;;6.67;3.40;;;7.10;99.90;;;;;;5032415;28;20206;-62
2023/02/25 01:24:15;;;;;;;5.03;3.33;;;7.10;99.90;;;;;;5032456;28;20289;-61
2023/02/25 01:26:43;;;;;;;7.50;3.53;;;7.10;99.90;;;;;;5032245;28;20222;-61
2023/02/25 01:29:13;;;;;;;4.50;3.20;;;7.20;99.90;;;;;;5032186;28;20288;-61
2023/02/25 01:31:40;;;;;;;3.87;3.03;;;7.10;99.90;;;;;;5031975;28;20210;-61
2023/02/25 01:34:09;;;;;;;7.80;3.60;;;7.10;99.90;;;;;;5031818;28;20217;-61
2023/02/25 01:36:35;;;;;;;5.90;3.50;;;7.10;99.90;;;;;;5031902;28;20209;-62
2023/02/25 01:39:03;;;;;;;6.23;3.50;;;7.30;99.90;;;;;;5031735;28;20229;-60
2023/02/25 01:41:33;;;;;;;6.80;3.40;;;7.40;99.90;;;;;;5031367;28;20202;-60
2023/02/25 01:44:07;;;;;;;6.07;3.37;;;7.50;99.90;;;;;;5031897;28;20265;-62
2023/02/25 01:46:34;;;;;;;7.70;3.73;;;7.70;99.90;;;;;;5031721;28;20218;-60
2023/02/25 01:49:01;;;;;;;5.17;3.60;;;7.70;99.90;;;;;;5031489;28;20238;-60
2023/02/25 01:51:30;;;;;;;5.13;3.47;;;7.70;99.90;;;;;;5031400;28;20226;-61
2023/02/25 01:54:01;;;;;;;4.63;3.17;;;7.70;99.90;;;;;;5031546;28;20206;-60
2023/02/25 01:56:29;;;;;;;4.53;2.60;;;7.60;99.90;;;;;;5034537;28;20206;-60
2023/02/25 01:58:58;;;;;;;5.40;3.27;;;7.70;99.90;;;;;;5035458;28;20229;-61
2023/02/25 02:01:27;;;;;;;3.90;2.60;;;7.60;99.90;;;;;;5035034;28;20333;-62
2023/02/25 02:03:55;;;;;;;6.93;3.10;;;7.60;99.90;;;;;;5035078;28;20682;-61
2023/02/25 02:06:27;;;;;;;5.07;2.97;;;7.70;99.90;;;;;;5034804;28;20209;-62
2023/02/25 02:08:54;;;;;;;6.77;3.03;;;7.70;99.90;;;;;;5034717;28;20322;-60
2023/02/25 02:11:21;;;;;;;5.33;2.70;;;7.70;99.90;;;;;;5034982;28;20212;-60
2023/02/25 02:13:51;;;;;;;3.40;2.40;;;7.70;99.90;;;;;;5035181;28;20206;-60
2023/02/25 02:16:32;;;;;;;4.30;2.80;;;7.70;99.90;;;;;;5034728;28;20701;-62
2023/02/25 02:19:21;;;;;;;3.83;2.60;;;7.60;99.90;;;;;;5034934;28;20222;-62
2023/02/25 02:22:00;;;;;;;7.70;4.57;;;7.50;99.90;;;;;;5034673;28;20765;-60
2023/02/25 02:25:04;;;;;;;6.37;2.43;;;7.60;99.90;;;;;;5034749;28;20293;-61
2023/02/25 02:27:38;;;;;;;3.77;2.10;;;7.50;99.90;;;;;;5028090;28;20233;-61
2023/02/25 02:30:17;;;;;;;4.60;2.10;;;7.40;99.90;;;;;;5034969;28;20226;-60
2023/02/25 02:32:50;;;;;;;4.57;2.00;;;7.30;99.90;;;;;;5035002;28;20217;-60
2023/02/25 02:35:22;;;;;;;3.67;2.00;;;7.20;99.90;;;;;;5035624;28;20624;-60
2023/02/25 02:37:58;;;;;;;2.80;1.77;;;7.20;99.90;;;;;;5035052;28;20206;-61
2023/02/25 02:40:40;;;;;;;4.00;1.93;;;7.20;99.90;;;;;;5034808;28;20657;-60
2023/02/25 02:43:17;;;;;;;2.87;1.67;;;7.20;99.90;;;;;;5035492;28;20579;-60
2023/02/25 02:45:49;;;;;;;2.23;1.33;;;7.10;99.90;;;;;;5034962;28;20260;-60
2023/02/25 02:48:21;;;;;;;3.57;1.87;;;7.00;99.90;;;;;;5034810;28;20280;-60
2023/02/25 02:50:52;;;;;;;2.80;1.67;;;7.00;99.90;;;;;;5083249;22;20776;-57
2023/02/25 02:53:23;;;;;;;3.27;1.70;;;6.90;99.90;;;;;;5062557;28;20206;-59
2023/02/25 02:55:53;;;;;;;4.67;1.70;;;6.90;99.90;;;;;;5055797;28;20255;-59
2023/02/25 02:58:26;;;;;;;4.47;1.70;;;6.90;99.90;;;;;;5055617;28;20557;-59
2023/02/25 03:00:58;;;;;;;3.17;1.80;;;6.90;99.90;;;;;;5036537;28;20602;-59
2023/02/25 03:03:35;;;;;;;4.23;2.00;;;6.90;99.90;;;;;;5035326;28;20684;-59
2023/02/25 03:06:05;;;;;;;5.90;2.20;;;6.90;99.90;;;;;;5035467;28;20209;-59
2023/02/25 03:08:35;;;;;;;2.63;1.63;;;6.90;99.90;;;;;;5035515;28;20611;-59
2023/02/25 03:11:02;;;;;;;5.17;2.30;;;6.80;99.90;;;;;;5035865;28;20210;-59
2023/02/25 03:13:29;;;;;;;4.37;2.30;;;6.90;99.90;;;;;;5035080;28;20218;-59
2023/02/25 03:15:59;;;;;;;3.13;2.20;;;6.90;99.90;;;;;;5035776;28;20229;-59
2023/02/25 03:18:34;;;;;;;4.27;2.10;;;6.90;99.90;;;;;;5035325;28;20206;-59
2023/02/25 03:21:03;;;;;;;5.60;2.13;;;6.90;99.90;;;;;;5034992;28;20229;-59
2023/02/25 03:23:33;;;;;;;5.10;2.33;;;7.00;99.90;;;;;;5035037;28;20210;-59
2023/02/25 03:26:07;;;;;;;6.27;2.43;;;7.00;99.90;;;;;;5034999;28;20256;-57
2023/02/25 03:28:34;;;;;;;3.33;2.10;;;7.00;99.90;;;;;;5035014;28;20222;-57
2023/02/25 03:31:06;;;;;;;5.37;2.33;;;6.90;99.90;;;;;;5034987;28;20236;-58
2023/02/25 03:33:38;;;;;;;5.30;2.50;;;6.80;99.90;;;;;;5034901;28;20234;-58
2023/02/25 03:36:10;;;;;;;5.00;2.40;;;6.60;99.90;;;;;;5035046;28;20206;-58
2023/02/25 03:38:41;;;;;;;6.43;2.93;;;6.70;99.90;;;;;;5034934;28;20206;-58
2023/02/25 03:41:09;;;;;;;5.63;2.60;;;6.80;99.90;;;;;;5035019;28;20238;-57
2023/02/25 03:43:40;;;;;;;7.77;3.47;;;6.70;99.90;;;;;;5034949;28;20210;-57
2023/02/25 03:46:07;;;;;;;6.33;2.77;;;6.60;99.90;;;;;;5034940;28;20217;-57
2023/02/25 03:48:38;;;;;;;5.60;2.50;;;6.60;99.90;;;;;;5035545;28;20237;-56
2023/02/25 03:51:06;;;;;;;5.13;2.30;;;6.60;99.90;;;;;;5034583;28;20213;-57
2023/02/25 03:53:34;;;;;;;4.30;2.57;;;6.40;99.90;;;;;;5035066;28;20209;-58
2023/02/25 03:56:05;;;;;;;7.90;2.97;;;6.40;99.90;;;;;;5035090;28;20206;-58
2023/02/25 03:58:32;;;;;;;4.37;2.67;;;6.60;99.90;;;;;;5034133;28;20225;-58
2023/02/25 04:01:02;;;;;;;7.53;3.37;;;6.50;99.90;;;;;;5034347;28;20257;-57
2023/02/25 04:03:29;;;;;;;7.93;2.90;;;6.60;99.90;;;;;;5034608;28;20576;-57
2023/02/25 04:05:57;;;;;;;5.07;2.50;;;6.70;99.90;;;;;;5034969;28;20584;-57
2023/02/25 04:08:24;;;;;;;4.87;2.40;;;6.80;99.90;;;;;;5035059;28;20226;-58
2023/02/25 04:10:51;;;;;;;5.47;3.00;;;6.90;99.90;;;;;;5035296;28;20242;-57
2023/02/25 04:13:19;;;;;;;6.93;2.50;;;6.70;99.90;;;;;;5035800;28;20709;-58
2023/02/25 04:15:47;;;;;;;5.80;2.57;;;6.70;99.90;;;;;;5036364;28;20218;-58
2023/02/25 04:18:14;;;;;;;6.13;2.17;;;6.60;99.90;;;;;;5038324;28;20210;-58
2023/02/25 04:20:41;;;;;;;6.93;2.53;;;6.50;99.90;;;;;;5038258;28;20231;-57
2023/02/25 04:23:13;;;;;;;5.50;2.17;;;6.50;99.90;;;;;;5038033;28;20214;-58
2023/02/25 04:25:39;;;;;;;5.53;2.40;;;6.50;99.90;;;;;;5035579;28;20592;-58
2023/02/25 04:28:06;;;;;;;4.07;1.83;;;6.40;99.90;;;;;;5033798;28;20593;-58
2023/02/25 04:30:33;;;;;;;5.33;2.23;;;6.40;99.90;;;;;;5033754;28;20233;-57
2023/02/25 04:32:59;;;;;;;5.23;2.43;;;6.30;99.90;;;;;;5033838;28;20213;-57
2023/02/25 04:35:26;;;;;;;4.60;1.90;;;6.20;99.90;;;;;;5033221;28;20673;-58
2023/02/25 04:37:53;;;;;;;5.07;2.37;;;6.10;99.90;;;;;;5033468;28;20230;-57
2023/02/25 04:40:23;;;;;;;5.60;1.83;;;6.00;99.90;;;;;;5033356;28;20238;-58
2023/02/25 04:42:50;;;;;;;4.00;1.90;;;6.00;99.90;;;;;;5034010;28;20214;-58
2023/02/25 04:45:17;;;;;;;4.27;2.07;;;5.90;99.90;;;;;;5033288;28;20268;-58
2023/02/25 04:47:44;;;;;;;4.33;1.67;;;5.90;99.90;;;;;;5034596;28;20234;-57
2023/02/25 04:50:12;;;;;;;2.93;1.60;;;6.00;99.90;;;;;;5033355;28;20230;-57
2023/02/25 04:52:39;;;;;;;3.33;1.20;;;6.20;99.90;;;;;;5032961;28;20221;-58
2023/02/25 04:55:08;;;;;;;6.47;1.57;;;6.30;99.90;;;;;;5032797;28;20206;-57
2023/02/25 04:57:41;;;;;;;3.97;1.30;;;6.40;99.90;;;;;;5032942;28;20216;-58
2023/02/25 05:00:10;;;;;;;3.93;1.50;;;6.40;99.90;;;;;;5033358;28;20230;-58
2023/02/25 05:02:37;;;;;;;4.03;1.50;;;6.40;99.90;;;;;;5032584;28;20229;-58
2023/02/25 05:05:04;;;;;;;6.50;1.90;;;6.40;99.90;;;;;;5032675;28;20674;-58
2023/02/25 05:07:31;;;;;;;4.83;1.53;;;6.50;99.90;;;;;;5032480;28;20230;-58
2023/02/25 05:09:58;;;;;;;5.13;1.60;;;6.50;99.90;;;;;;5032961;28;20233;-57
2023/02/25 05:12:26;;;;;;;5.37;1.30;;;6.60;99.90;;;;;;5033181;28;20213;-60
2023/02/25 05:14:54;;;;;;;4.30;1.60;;;6.50;99.90;;;;;;5033883;28;20210;-58
2023/02/25 05:17:21;;;;;;;3.73;1.47;;;6.60;99.90;;;;;;5034298;28;20595;-58
2023/02/25 05:19:47;;;;;;;5.53;1.70;;;6.60;99.90;;;;;;5033876;28;20237;-58
2023/02/25 05:22:14;;;;;;;3.50;1.30;;;6.60;99.90;;;;;;5033830;28;20202;-57
2023/02/25 05:24:41;;;;;;;4.73;1.50;;;6.60;99.90;;;;;;5033855;28;20225;-58
2023/02/25 05:27:08;;;;;;;4.87;1.40;;;6.50;99.90;;;;;;5034305;28;20214;-58
2023/02/25 05:29:35;;;;;;;3.20;1.40;;;6.50;99.90;;;;;;5035664;28;20240;-57
2023/02/25 05:32:03;;;;;;;4.63;1.27;;;6.60;99.90;;;;;;5037561;28;20234;-58
2023/02/25 05:34:30;;;;;;;8.23;2.90;;;6.60;99.90;;;;;;5037372;28;20210;-60
2023/02/25 05:36:57;;;;;;;5.13;1.90;;;6.70;99.90;;;;;;5037550;28;20297;-58
2023/02/25 05:39:24;;;;;;;4.47;1.47;;;6.80;99.90;;;;;;5037305;28;20226;-58
2023/02/25 05:41:51;;;;;;;5.13;1.60;;;6.90;99.90;;;;;;5037754;28;20221;-57
2023/02/25 05:44:17;;;;;;;6.07;1.53;;;6.80;99.90;;;;;;5037348;28;20213;-60
2023/02/25 05:46:44;;;;;;;6.03;1.93;;;6.90;99.90;;;;;;5037254;28;20210;-60
2023/02/25 05:49:12;;;;;;;4.43;1.40;;;6.90;99.90;;;;;;5036868;28;20241;-58
2023/02/25 05:51:39;;;;;;;3.43;1.10;;;6.90;99.90;;;;;;5037080;28;20206;-58
2023/02/25 05:54:06;;;;;;;5.27;1.80;;;6.90;99.90;;;;;;5036688;28;20685;-58
2023/02/25 05:56:33;;;;;;;4.90;1.80;;;6.90;99.90;;;;;;5037595;28;20206;-58
2023/02/25 05:58:59;;;;;;;5.77;2.40;;;7.00;99.90;;;;;;5038053;28;20218;-57
2023/02/25 06:01:28;;;;;;;5.97;2.43;;;7.10;99.90;;;;;;5037566;28;20210;-58
2023/02/25 06:03:57;;;;;;;2.93;1.27;;;7.10;99.90;;;;;;5037359;28;20566;-60
2023/02/25 06:06:27;;;;;;;4.10;1.50;;;7.00;99.90;;;;;;5037285;28;20206;-60
2023/02/25 06:08:53;;;;;;;3.43;1.70;;;7.20;99.90;;;;;;5037573;28;20228;-58
2023/02/25 06:11:23;;;;;;;7.30;2.03;;;7.20;99.90;;;;;;5037061;28;20213;-58
2023/02/25 06:13:51;;;;;;;4.47;1.83;;;7.20;99.90;;;;;;5037490;28;20580;-58
2023/02/25 06:16:18;;;;;;;5.03;1.90;;;7.20;99.90;;;;;;5037512;28;20706;-58
2023/02/25 06:18:46;;;;;;;3.63;1.37;;;7.20;99.90;;;;;;5037201;28;20210;-58
2023/02/25 06:21:14;;;;;;;6.93;1.60;;;7.10;99.90;;;;;;5038144;28;20206;-58
2023/02/25 06:23:43;;;;;;;4.43;1.50;;;7.20;99.90;;;;;;5038067;28;20214;-59
2023/02/25 06:26:12;;;;;;;5.77;2.10;;;7.20;99.90;;;;;;5038133;28;20206;-59
2023/02/25 06:28:39;;;;;;;4.63;2.00;;;7.20;99.90;;;;;;5037494;28;20222;-59
2023/02/25 06:31:08;;;;;;;4.70;2.00;;;7.20;99.90;;;;;;5037262;28;20422;-59
2023/02/25 06:33:35;;;;;;;4.27;1.57;;;7.30;99.90;;;;;;5037357;28;20260;-60
2023/02/25 06:36:03;;;;;;;2.60;1.27;;;7.30;99.90;;;;;;5037096;28;20225;-59
2023/02/25 06:38:31;;;;;;;4.73;2.10;;;7.30;99.90;;;;;;5037787;28;20206;-59
2023/02/25 06:40:59;;;;;;;3.10;1.37;;;7.30;99.90;;;;;;5036264;28;20689;-59
2023/02/25 06:43:26;;;;;;;6.60;2.60;;;7.30;99.90;;;;;;5036810;28;20207;-59
2023/02/25 06:45:53;;;;;;;3.80;1.77;;;7.30;99.90;;;;;;5036983;28;20206;-60
2023/02/25 06:48:19;;;;;;;5.37;1.90;;;7.30;99.90;;;;;;5036836;28;20222;-59
2023/02/25 06:50:46;;;;;;;6.30;1.70;;;7.40;99.90;;;;;;5037212;28;20261;-60
2023/02/25 06:53:13;;;;;;;4.00;2.00;;;7.40;99.90;;;;;;5036465;28;20210;-59
2023/02/25 06:55:40;;;;;;;6.77;1.60;;;7.40;99.90;;;;;;5036717;28;20214;-59
2023/02/25 06:58:08;;;;;;;4.47;1.30;;;7.30;99.90;;;;;;5036557;28;20198;-58
2023/02/25 07:00:36;;;;;;;4.53;1.83;;;7.30;99.90;;;;;;5036294;28;20227;-58
2023/02/25 07:03:04;;;;;;;4.70;1.57;;;7.30;99.90;;;;;;5036858;28;20210;-58
2023/02/25 07:05:30;;;;;;;4.90;1.57;;;7.40;99.90;;;;;;5034478;28;20202;-58
2023/02/25 07:07:57;;;;;;;4.73;1.60;;;7.50;99.90;;;;;;5033789;28;20574;-57
2023/02/25 07:10:24;;;;;;;4.33;1.30;;;7.50;99.90;;;;;;5033757;28;20222;-57
2023/02/25 07:12:52;;;;;;;4.87;1.23;;;7.60;99.90;;;;;;5033814;28;20210;-56
2023/02/25 07:15:21;;;;;;;3.70;1.13;;;7.60;99.90;;;;;;5033848;28;20713;-57
2023/02/25 07:17:48;;;;;;;5.13;1.57;;;7.70;99.90;;;;;;5033751;28;20674;-57
2023/02/25 07:20:15;;;;;;;2.57;1.20;;;7.80;99.90;;;;;;5033878;28;20348;-58
2023/02/25 07:22:42;;;;;;;7.23;3.27;;;7.80;99.90;;;;;;5033612;28;20214;-59
2023/02/25 07:25:10;;;;;;;9.43;3.93;;;7.90;99.90;;;;;;5034097;28;20308;-59
2023/02/25 07:27:39;;;;;;;4.27;1.30;;;7.90;99.90;;;;;;5033281;28;20585;-59
2023/02/25 07:30:07;;;;;;;6.53;1.43;;;8.00;99.90;;;;;;5033698;28;20234;-57
2023/02/25 07:32:35;;;;;;;4.07;1.53;;;8.00;99.90;;;;;;5033737;28;20202;-57
2023/02/25 07:35:03;;;;;;;3.67;1.30;;;8.10;99.90;;;;;;5033808;28;20209;-57
2023/02/25 07:37:30;;;;;;;2.00;1.30;;;8.10;99.90;;;;;;5033446;28;20582;-58
2023/02/25 07:39:58;;;;;;;4.33;1.47;;;8.10;99.90;;;;;;5033389;28;20574;-60
2023/02/25 07:42:25;;;;;;;5.37;1.93;;;8.20;99.90;;;;;;5033184;28;20662;-58
2023/02/25 07:44:52;;;;;;;3.67;1.20;;;8.20;99.90;;;;;;5033637;28;20770;-59
2023/02/25 07:47:19;;;;;;;4.33;1.87;;;8.20;99.90;;;;;;5033127;28;20237;-58
2023/02/25 07:49:47;;;;;;;10.53;2.53;;;8.20;99.90;;;;;;5033581;28;20296;-60
2023/02/25 07:52:15;;;;;;;4.03;1.30;;;8.00;99.90;;;;;;5032109;28;20696;-59
2023/02/25 07:54:42;;;;;;;3.50;1.30;;;8.00;99.90;;;;;;5032997;28;20693;-60
2023/02/25 07:57:08;;;;;;;6.00;1.53;;;8.00;99.90;;;;;;5033630;28;20203;-60
2023/02/25 07:59:35;;;;;;;3.03;1.10;;;8.00;99.90;;;;;;5033102;28;20226;-60
2023/02/25 08:02:02;;;;;;;6.63;1.47;;;8.00;99.90;;;;;;5033179;28;20210;-59
2023/02/25 08:04:29;;;;;;;5.03;2.10;;;8.10;99.90;;;;;;5033353;28;20218;-59
2023/02/25 08:06:57;;;;;;;4.20;2.13;;;8.30;99.90;;;;;;5032664;28;20202;-59
2023/02/25 08:09:24;;;;;;;6.30;2.30;;;8.40;99.90;;;;;;5032853;28;20226;-59
2023/02/25 08:11:51;;;;;;;6.93;1.30;;;8.60;99.90;;;;;;5032769;28;20208;-59
2023/02/25 08:14:17;;;;;;;6.67;2.30;;;8.70;99.90;;;;;;5033171;28;20206;-60
2023/02/25 08:16:44;;;;;;;3.73;1.03;;;8.70;99.90;;;;;;5033030;28;20218;-60
2023/02/25 08:19:11;;;;;;;2.80;1.23;;;8.80;99.90;;;;;;5032619;28;20622;-59
2023/02/25 08:21:39;;;;;;;6.97;2.10;;;8.90;99.90;;;;;;5032669;28;20930;-59
2023/02/25 08:24:08;;;;;;;3.90;1.33;;;8.80;99.90;;;;;;5032876;28;20237;-60
2023/02/25 08:26:35;;;;;;;2.80;1.27;;;8.90;99.90;;;;;;5032791;28;20219;-58
2023/02/25 08:29:02;;;;;;;2.20;1.23;;;8.80;99.90;;;;;;5032604;28;20230;-60
2023/02/25 08:31:29;;;;;;;4.03;1.30;;;8.70;99.90;;;;;;5032408;28;20206;-60
2023/02/25 08:33:58;;;;;;;4.27;1.93;;;8.70;99.90;;;;;;5032635;28;20206;-60
2023/02/25 08:36:26;;;;;;;6.03;2.20;;;8.70;99.90;;;;;;5033306;28;20628;-59
2023/02/25 08:38:55;;;;;;;3.93;1.53;;;8.70;99.90;;;;;;5032747;28;20210;-59
2023/02/25 08:41:25;;;;;;;6.47;1.47;;;8.70;99.90;;;;;;5032355;28;20643;-61
2023/02/25 08:43:54;;;;;;;5.63;1.80;;;8.60;99.90;;;;;;5032599;28;20312;-60
2023/02/25 08:46:21;;;;;;;4.60;1.90;;;8.70;99.90;;;;;;5032324;28;20264;-60
2023/02/25 08:48:49;;;;;;;4.53;1.33;;;8.80;99.90;;;;;;5032158;28;20233;-58
2023/02/25 08:51:16;;;;;;;4.50;1.20;;;8.80;99.90;;;;;;5032713;28;20260;-57
2023/02/25 08:53:43;;;;;;;3.77;1.17;;;8.80;99.90;;;;;;5031940;28;20217;-56
2023/02/25 08:56:12;;;;;;;6.20;1.30;;;8.80;99.90;;;;;;5031967;28;20213;-58
2023/02/25 08:58:41;;;;;;;3.30;1.30;;;8.80;99.90;;;;;;5032145;28;20214;-56
2023/02/25 09:01:11;;;;;;;3.93;1.27;;;8.90;99.90;;;;;;5031788;28;20621;-57
2023/02/25 09:03:38;;;;;;;5.37;1.60;;;9.10;99.90;;;;;;5032113;28;20209;-56
2023/02/25 09:06:05;;;;;;;3.70;1.27;;;9.10;99.90;;;;;;5036249;28;20210;-56
2023/02/25 09:08:32;;;;;;;1.77;0.80;;;9.10;99.90;;;;;;5036425;28;20210;-57
2023/02/25 09:10:59;;;;;;;3.57;1.20;;;9.10;99.90;;;;;;5036268;28;20232;-56
2023/02/25 09:13:26;;;;;;;3.27;1.10;;;9.00;99.90;;;;;;5035778;28;20629;-56
2023/02/25 09:15:58;;;;;;;4.60;1.43;;;9.00;99.90;;;;;;5036231;28;20268;-56
2023/02/25 09:18:25;;;;;;;5.27;1.33;;;9.00;99.90;;;;;;5036115;28;20203;-56
2023/02/25 09:20:52;;;;;;;2.70;1.30;;;9.00;99.90;;;;;;5036096;28;20225;-56
2023/02/25 09:23:19;;;;;;;5.97;1.50;;;9.20;99.90;;;;;;5035699;28;20669;-56
2023/02/25 09:25:46;;;;;;;3.87;1.13;;;9.30;99.90;;;;;;5035931;28;20301;-56
2023/02/25 09:28:13;;;;;;;5.67;1.67;;;9.30;99.90;;;;;;5035791;28;20206;-56
2023/02/25 09:30:40;;;;;;;3.83;1.23;;;9.30;99.90;;;;;;5035539;28;20234;-56
2023/02/25 09:33:08;;;;;;;4.63;1.33;;;9.30;99.90;;;;;;5035968;28;20206;-56
2023/02/25 09:35:35;;;;;;;1.80;1.10;;;9.50;99.90;;;;;;5035748;28;20593;-57
2023/02/25 09:38:01;;;;;;;3.87;1.30;;;9.50;99.90;;;;;;5036081;28;20210;-57
2023/02/25 09:40:28;;;;;;;7.87;2.00;;;9.50;99.90;;;;;;5035594;28;20249;-56
2023/02/25 09:43:08;;;;;;;4.83;1.50;;;9.50;99.90;;;;;;5035427;28;20209;-56
2023/02/25 09:45:35;;;;;;;2.70;1.00;;;9.40;99.90;;;;;;5035556;28;20507;-56
2023/02/25 09:48:12;;;;;;;4.50;1.30;;;9.50;99.90;;;;;;5035597;28;20210;-56
2023/02/25 09:50:45;;;;;;;1.73;0.97;;;9.60;99.90;;;;;;5035233;28;20241;-55
2023/02/25 09:53:16;;;;;;;2.07;1.00;;;9.60;99.90;;;;;;5035415;28;20237;-56
2023/02/25 09:55:47;;;;;;;2.40;1.00;;;9.60;99.90;;;;;;5035482;28;20206;-58
2023/02/25 09:58:21;;;;;;;3.70;1.47;;;9.50;99.90;;;;;;5035760;28;20268;-56
2023/02/25 10:01:01;;;;;;;1.83;1.10;;;9.60;99.90;;;;;;5035937;28;20229;-56
2023/02/25 10:03:44;;;;;;;4.03;1.20;;;9.50;99.90;;;;;;5035399;28;20241;-57
2023/02/25 10:06:18;;;;;;;3.23;0.90;;;9.70;99.90;;;;;;5035610;28;20214;-57
2023/02/25 10:08:50;;;;;;;4.43;1.03;;;9.70;99.90;;;;;;5035298;28;20214;-56
2023/02/25 10:11:29;;;;;;;4.03;1.50;;;9.90;99.90;;;;;;5035465;28;20202;-57
2023/02/25 10:14:07;;;;;;;2.20;0.90;;;10.10;99.90;;;;;;5035420;28;20228;-56
2023/02/25 10:16:43;;;;;;;1.77;0.80;;;10.20;99.90;;;;;;5034315;28;20285;-56
2023/02/25 10:19:23;;;;;;;1.97;0.93;;;10.30;99.90;;;;;;5035377;28;20234;-57
2023/02/25 10:22:05;;;;;;;3.13;0.87;;;10.40;99.90;;;;;;5035108;28;20614;-56
2023/02/25 10:24:38;;;;;;;2.97;1.00;;;10.40;99.90;;;;;;5035527;28;20297;-57
2023/02/25 10:27:14;;;;;;;3.23;1.17;;;10.30;99.90;;;;;;5035109;28;20560;-56
2023/02/25 10:29:48;;;;;;;2.67;0.93;;;10.30;99.90;;;;;;5034965;28;20272;-56
2023/02/25 10:32:22;;;;;;;4.20;0.77;;;10.40;99.90;;;;;;5034847;28;20214;-56
2023/02/25 10:34:51;;;;;;;4.57;1.10;;;10.40;99.90;;;;;;5034705;28;20211;-55
2023/02/25 10:37:26;;;;;;;3.00;0.87;;;10.30;99.90;;;;;;5034445;28;20211;-57
2023/02/25 10:39:56;;;;;;;2.07;0.90;;;10.30;99.90;;;;;;5035083;28;20253;-56
2023/02/25 10:42:24;;;;;;;2.57;1.00;;;10.50;99.90;;;;;;5035031;28;20207;-56
2023/02/25 10:44:52;;;;;;;1.70;1.00;;;10.80;99.90;;;;;;5034962;28;20579;-57
2023/02/25 10:47:28;;;;;;;5.80;1.17;;;10.90;99.90;;;;;;5034706;28;20591;-57
2023/02/25 10:50:14;;;;;;;3.43;1.10;;;10.90;99.60;;;;;;5034437;28;20230;-57
2023/02/25 10:52:58;;;;;;;5.07;1.30;;;10.80;99.70;;;;;;5034650;28;20213;-57
2023/02/25 10:55:39;;;;;;;1.80;0.97;;;10.60;99.60;;;;;;5035364;28;20205;-57
2023/02/25 10:58:20;;;;;;;4.07;0.80;;;10.40;99.70;;;;;;5034439;28;20202;-57
2023/02/25 11:00:55;;;;;;;3.17;1.10;;;10.40;99.70;;;;;;5034531;28;20222;-57
2023/02/25 11:03:24;;;;;;;2.50;1.17;;;10.30;99.90;;;;;;5034244;28;20205;-55
2023/02/25 11:05:51;;;;;;;3.30;1.20;;;10.60;99.70;;;;;;5035138;28;20234;-59
2023/02/25 11:08:28;;;;;;;1.67;0.77;;;10.60;99.90;;;;;;5034877;28;20264;-57
2023/02/25 11:11:03;;;;;;;4.40;0.97;;;10.60;99.40;;;;;;5034344;28;20257;-57
2023/02/25 11:13:34;;;;;;;2.00;1.20;;;10.90;99.80;;;;;;5034111;28;20213;-57
2023/02/25 11:16:05;;;;;;;2.53;1.00;;;11.10;99.40;;;;;;5034568;28;20666;-57
2023/02/25 11:18:34;;;;;;;2.67;1.20;;;11.10;98.80;;;;;;5034084;28;20506;-57
2023/02/25 11:21:05;;;;;;;1.83;1.00;;;10.80;99.60;;;;;;5030786;28;20227;-57
2023/02/25 11:23:38;;;;;;;2.43;1.00;;;10.50;99.60;;;;;;5043903;28;20213;-59
2023/02/25 11:26:06;;;;;;;2.07;1.03;;;10.20;99.80;;;;;;5052853;28;20670;-57
2023/02/25 11:28:38;;;;;;;2.30;1.17;;;10.00;99.90;;;;;;5052961;28;20637;-59
2023/02/25 11:31:13;;;;;;;3.90;1.10;;;9.90;99.90;;;;;;5052363;28;20260;-60
2023/02/25 11:33:44;;;;;;;2.83;1.07;;;9.70;99.90;;;;;;5053261;28;20639;-57
2023/02/25 11:36:11;;;;;;;3.40;1.47;;;9.60;99.90;;;;;;5052743;28;20205;-58
2023/02/25 11:38:41;;;;;;;2.47;1.00;;;9.30;99.90;;;;;;5052517;28;20197;-57
2023/02/25 11:41:17;;;;;;;2.80;1.07;;;8.90;99.90;;;;;;5052834;28;20627;-57
2023/02/25 11:43:44;;;;;;;3.47;1.17;;;8.70;99.90;;;;;;5052320;28;20205;-58
2023/02/25 11:46:18;;;;;;;3.80;1.33;;;8.60;99.90;;;;;;5052520;28;20236;-58
2023/02/25 11:48:50;;;;;;;2.67;1.27;;;8.70;99.90;;;;;;5052717;28;20209;-61
2023/02/25 11:51:25;;;;;;;5.03;1.47;;;8.80;99.90;;;;;;5052709;28;20230;-57
2023/02/25 11:54:18;;;;;;;2.73;1.13;;;8.80;99.90;;;;;;5052165;28;20205;-57
2023/02/25 11:56:48;;;;;;;3.67;1.20;;;9.00;99.90;;;;;;5052494;28;20256;-58
2023/02/25 11:59:30;;;;;;;4.47;1.50;;;9.20;99.90;;;;;;5052365;28;20241;-58
2023/02/25 12:02:22;;;;;;;5.80;1.37;;;9.50;99.90;;;;;;5052307;28;20677;-59
2023/02/25 12:05:27;;;;;;;3.20;1.30;;;9.70;99.90;;;;;;5052541;28;20239;-58
2023/02/25 12:08:15;;;;;;;2.83;1.17;;;9.70;99.90;;;;;;5051809;28;20212;-58
2023/02/25 12:11:33;;;;;;;2.07;1.10;;;9.70;99.90;;;;;;5052125;28;20229;-59
2023/02/25 12:14:45;;;;;;;3.27;1.53;;;9.60;99.90;;;;;;5051668;28;20209;-59
2023/02/25 12:17:42;;;;;;;6.83;2.10;;;9.70;99.90;;;;;;5051877;28;20213;-59
2023/02/25 12:20:37;;;;;;;7.80;3.70;;;9.60;99.90;;;;;;5051621;28;20233;-60
2023/02/25 12:23:52;;;;;;;3.50;1.40;;;9.40;99.90;;;;;;5051744;28;20236;-58
2023/02/25 12:26:28;;;;;;;2.83;1.53;;;9.20;99.90;;;;;;4990036;28;20248;-59
2023/02/25 12:29:12;;;;;;;4.27;1.60;;;8.70;99.90;;;;;;5023434;28;20223;-64
2023/02/25 12:32:13;;;;;;;3.37;1.50;;;8.20;99.90;;;;;;5032038;28;20224;-63
2023/02/25 12:35:18;;;;;;;6.90;1.73;;;7.80;99.90;;;;;;5021381;28;20216;-58
2023/02/25 12:38:39;;;;;;;4.70;1.70;;;7.60;99.90;;;;;;5031668;28;20216;-60
2023/02/25 12:41:24;;;;;;;4.37;1.63;;;7.70;99.90;;;;;;5031797;28;20207;-60
2023/02/25 12:43:55;;;;;;;5.10;1.70;;;7.70;99.90;;;;;;5031496;28;20701;-61
2023/02/25 12:46:33;;;;;;;3.97;1.50;;;7.70;99.90;;;;;;5031150;28;20202;-58
2023/02/25 12:49:27;;;;;;;3.07;1.50;;;7.80;99.90;;;;;;5030164;28;20249;-61
2023/02/25 12:52:11;;;;;;;2.63;1.50;;;8.10;99.90;;;;;;5030388;28;20721;-59
2023/02/25 12:55:14;;;;;;;2.67;1.30;;;8.50;99.90;;;;;;5032663;28;20206;-56
2023/02/25 12:57:50;;;;;;;3.13;1.10;;;8.70;99.90;;;;;;5033330;28;20613;-55
2023/02/25 13:00:50;;;;;;;3.40;1.30;;;9.00;99.90;;;;;;5032822;28;20222;-55
2023/02/25 13:03:31;;;;;;;5.20;0.93;;;9.30;99.90;;;;;;5032161;28;20187;-56
2023/02/25 13:06:26;;;;;;;2.83;1.10;;;9.50;99.90;;;;;;5032760;28;20245;-56
2023/02/25 13:09:13;;;;;;;5.83;1.00;;;9.70;99.90;;;;;;5032288;28;20673;-56
2023/02/25 13:11:55;;;;;;;4.80;1.80;;;9.70;99.90;;;;;;5032358;28;20237;-56
2023/02/25 13:14:37;;;;;;;2.27;0.93;;;9.70;99.90;;;;;;5033132;28;20206;-55
2023/02/25 13:17:25;;;;;;;1.73;0.90;;;9.50;99.90;;;;;;5033494;28;20206;-56